sensor_id;sensor_type;location;lat;lon;timestamp;temperature;humidity
17565;DHT22;62994;52.126;5.596;2023-11-19T00:01:27;13.50;99.90
17565;DHT22;62994;52.126;5.596;2023-11-19T00:03:56;13.50;99.90
17565;DHT22;62994;52.126;5.596;2023-11-19T00:06:23;13.50;99.90
17565;DHT22;62994;52.126;5.596;2023-11-19T00:08:55;13.50;99.90
17565;DHT22;62994;52.126;5.596;2023-11-19T00:11:22;13.60;99.90
17565;DHT22;62994;52.126;5.596;2023-11-19T00:13:49;13.60;99.90
17565;DHT22;62994;52.126;5.596;2023-11-19T00:16:18;13.60;99.90
17565;DHT22;62994;52.126;5.596;2023-11-19T00:18:45;13.60;99.90
17565;DHT22;62994;52.126;5.596;2023-11-19T00:21:12;13.60;99.90
17565;DHT22;62994;52.126;5.596;2023-11-19T00:23:39;13.60;99.90
17565;DHT22;62994;52.126;5.596;2023-11-19T00:26:07;13.60;99.90
17565;DHT22;62994;52.126;5.596;2023-11-19T00:28:34;13.70;99.90
17565;DHT22;62994;52.126;5.596;2023-11-19T00:31:04;13.60;99.90
17565;DHT22;62994;52.126;5.596;2023-11-19T00:33:31;13.60;99.90
17565;DHT22;62994;52.126;5.596;2023-11-19T00:36:00;13.60;99.90
17565;DHT22;62994;52.126;5.596;2023-11-19T00:38:28;13.70;99.90
17565;DHT22;62994;52.126;5.596;2023-11-19T00:41:00;13.70;99.90
17565;DHT22;62994;52.126;5.596;2023-11-19T00:43:29;13.70;99.90
17565;DHT22;62994;52.126;5.596;2023-11-19T00:45:56;13.70;99.90
17565;DHT22;62994;52.126;5.596;2023-11-19T00:48:23;13.70;99.90
17565;DHT22;62994;52.126;5.596;2023-11-19T00:50:51;13.70;99.90
17565;DHT22;62994;52.126;5.596;2023-11-19T00:53:18;13.70;99.90
17565;DHT22;62994;52.126;5.596;2023-11-19T00:55:44;13.70;99.90
17565;DHT22;62994;52.126;5.596;2023-11-19T00:58:13;13.70;99.90
17565;DHT22;62994;52.126;5.596;2023-11-19T01:00:41;13.70;99.90
17565;DHT22;62994;52.126;5.596;2023-11-19T01:03:08;13.70;99.90
17565;DHT22;62994;52.126;5.596;2023-11-19T01:05:37;13.70;99.90
17565;DHT22;62994;52.126;5.596;2023-11-19T01:08:05;13.80;99.90
17565;DHT22;62994;52.126;5.596;2023-11-19T01:10:38;13.80;99.90
17565;DHT22;62994;52.126;5.596;2023-11-19T01:13:05;13.80;99.90
17565;DHT22;62994;52.126;5.596;2023-11-19T01:15:32;13.80;99.90
17565;DHT22;62994;52.126;5.596;2023-11-19T01:18:00;13.70;99.90
17565;DHT22;62994;52.126;5.596;2023-11-19T01:20:27;13.80;99.90
17565;DHT22;62994;52.126;5.596;2023-11-19T01:22:54;13.80;99.90
17565;DHT22;62994;52.126;5.596;2023-11-19T01:25:21;13.80;99.90
17565;DHT22;62994;52.126;5.596;2023-11-19T01:27:48;13.80;99.90
17565;DHT22;62994;52.126;5.596;2023-11-19T01:30:15;13.80;99.90
17565;DHT22;62994;52.126;5.596;2023-11-19T01:32:42;13.80;99.90
17565;DHT22;62994;52.126;5.596;2023-11-19T01:35:11;13.80;99.90
17565;DHT22;62994;52.126;5.596;2023-11-19T01:37:38;13.80;99.90
17565;DHT22;62994;52.126;5.596;2023-11-19T01:40:05;13.80;99.90
17565;DHT22;62994;52.126;5.596;2023-11-19T01:42:36;13.80;99.90
17565;DHT22;62994;52.126;5.596;2023-11-19T01:45:04;13.80;99.90
17565;DHT22;62994;52.126;5.596;2023-11-19T01:47:34;13.80;99.90
17565;DHT22;62994;52.126;5.596;2023-11-19T01:50:02;13.80;99.90
17565;DHT22;62994;52.126;5.596;2023-11-19T01:52:34;13.80;99.90
17565;DHT22;62994;52.126;5.596;2023-11-19T01:55:02;13.80;99.90
17565;DHT22;62994;52.126;5.596;2023-11-19T01:57:35;13.90;99.90
17565;DHT22;62994;52.126;5.596;2023-11-19T02:00:07;13.80;99.90
17565;DHT22;62994;52.126;5.596;2023-11-19T02:02:38;13.80;99.90
17565;DHT22;62994;52.126;5.596;2023-11-19T02:05:11;13.90;99.90
17565;DHT22;62994;52.126;5.596;2023-11-19T02:07:40;13.90;99.90
17565;DHT22;62994;52.126;5.596;2023-11-19T02:10:07;13.90;99.90
17565;DHT22;62994;52.126;5.596;2023-11-19T02:12:38;13.90;99.90
17565;DHT22;62994;52.126;5.596;2023-11-19T02:15:08;13.90;99.90
17565;DHT22;62994;52.126;5.596;2023-11-19T02:17:36;13.90;99.90
17565;DHT22;62994;52.126;5.596;2023-11-19T02:20:03;13.80;99.90
17565;DHT22;62994;52.126;5.596;2023-11-19T02:22:32;13.80;99.90
17565;DHT22;62994;52.126;5.596;2023-11-19T02:25:03;13.80;99.90
17565;DHT22;62994;52.126;5.596;2023-11-19T02:27:43;13.80;99.90
17565;DHT22;62994;52.126;5.596;2023-11-19T02:30:11;13.80;99.90
17565;DHT22;62994;52.126;5.596;2023-11-19T02:32:48;13.80;99.90
17565;DHT22;62994;52.126;5.596;2023-11-19T02:35:20;13.80;99.90
17565;DHT22;62994;52.126;5.596;2023-11-19T02:37:48;13.80;99.90
17565;DHT22;62994;52.126;5.596;2023-11-19T02:40:15;13.80;99.90
17565;DHT22;62994;52.126;5.596;2023-11-19T02:42:44;13.80;99.90
17565;DHT22;62994;52.126;5.596;2023-11-19T02:45:11;13.70;99.90
17565;DHT22;62994;52.126;5.596;2023-11-19T02:47:40;13.80;99.90
17565;DHT22;62994;52.126;5.596;2023-11-19T02:50:08;13.70;99.90
17565;DHT22;62994;52.126;5.596;2023-11-19T02:52:40;13.70;99.90
17565;DHT22;62994;52.126;5.596;2023-11-19T02:55:07;13.70;99.90
17565;DHT22;62994;52.126;5.596;2023-11-19T02:57:38;13.70;99.90
17565;DHT22;62994;52.126;5.596;2023-11-19T03:00:08;13.70;99.90
17565;DHT22;62994;52.126;5.596;2023-11-19T03:02:39;13.60;99.90
17565;DHT22;62994;52.126;5.596;2023-11-19T03:05:10;13.60;99.90
17565;DHT22;62994;52.126;5.596;2023-11-19T03:07:37;13.60;99.90
17565;DHT22;62994;52.126;5.596;2023-11-19T03:10:05;13.60;99.90
17565;DHT22;62994;52.126;5.596;2023-11-19T03:12:34;13.60;99.90
17565;DHT22;62994;52.126;5.596;2023-11-19T03:15:02;13.60;99.90
17565;DHT22;62994;52.126;5.596;2023-11-19T03:17:36;13.60;99.90
17565;DHT22;62994;52.126;5.596;2023-11-19T03:20:12;13.60;99.90
17565;DHT22;62994;52.126;5.596;2023-11-19T03:22:43;13.50;99.90
17565;DHT22;62994;52.126;5.596;2023-11-19T03:25:10;13.50;99.90
17565;DHT22;62994;52.126;5.596;2023-11-19T03:27:46;13.50;99.90
17565;DHT22;62994;52.126;5.596;2023-11-19T03:30:13;13.50;99.90
17565;DHT22;62994;52.126;5.596;2023-11-19T03:32:45;13.50;99.90
17565;DHT22;62994;52.126;5.596;2023-11-19T03:35:13;13.50;99.90
17565;DHT22;62994;52.126;5.596;2023-11-19T03:37:40;13.40;99.90
17565;DHT22;62994;52.126;5.596;2023-11-19T03:40:10;13.40;99.90
17565;DHT22;62994;52.126;5.596;2023-11-19T03:42:37;13.40;99.90
17565;DHT22;62994;52.126;5.596;2023-11-19T03:45:06;13.40;99.90
17565;DHT22;62994;52.126;5.596;2023-11-19T03:47:34;13.40;99.90
17565;DHT22;62994;52.126;5.596;2023-11-19T03:50:03;13.30;99.90
17565;DHT22;62994;52.126;5.596;2023-11-19T03:52:30;13.20;99.90
17565;DHT22;62994;52.126;5.596;2023-11-19T03:55:02;13.20;99.90
17565;DHT22;62994;52.126;5.596;2023-11-19T03:57:30;13.30;99.90
17565;DHT22;62994;52.126;5.596;2023-11-19T03:59:57;13.20;99.90
17565;DHT22;62994;52.126;5.596;2023-11-19T04:02:25;13.20;99.90
17565;DHT22;62994;52.126;5.596;2023-11-19T04:04:58;13.10;99.90
17565;DHT22;62994;52.126;5.596;2023-11-19T04:07:26;13.10;99.90
17565;DHT22;62994;52.126;5.596;2023-11-19T04:09:53;13.10;99.90
17565;DHT22;62994;52.126;5.596;2023-11-19T04:12:20;13.00;99.90
17565;DHT22;62994;52.126;5.596;2023-11-19T04:14:50;13.00;99.90
17565;DHT22;62994;52.126;5.596;2023-11-19T04:17:16;13.00;99.90
17565;DHT22;62994;52.126;5.596;2023-11-19T04:19:46;13.00;99.90
17565;DHT22;62994;52.126;5.596;2023-11-19T04:22:13;13.00;99.90
17565;DHT22;62994;52.126;5.596;2023-11-19T04:24:42;13.00;99.90
17565;DHT22;62994;52.126;5.596;2023-11-19T04:27:09;12.90;99.90
17565;DHT22;62994;52.126;5.596;2023-11-19T04:29:41;12.90;99.90
17565;DHT22;62994;52.126;5.596;2023-11-19T04:32:07;12.90;99.90
17565;DHT22;62994;52.126;5.596;2023-11-19T04:34:39;12.90;99.90
17565;DHT22;62994;52.126;5.596;2023-11-19T04:37:17;12.90;99.90
17565;DHT22;62994;52.126;5.596;2023-11-19T04:39:46;12.90;99.90
17565;DHT22;62994;52.126;5.596;2023-11-19T04:42:13;12.90;99.90
17565;DHT22;62994;52.126;5.596;2023-11-19T04:44:43;12.90;99.90
17565;DHT22;62994;52.126;5.596;2023-11-19T04:47:10;12.80;99.90
17565;DHT22;62994;52.126;5.596;2023-11-19T04:49:40;12.80;99.90
17565;DHT22;62994;52.126;5.596;2023-11-19T04:52:08;12.70;99.90
17565;DHT22;62994;52.126;5.596;2023-11-19T04:54:41;12.70;99.90
17565;DHT22;62994;52.126;5.596;2023-11-19T04:57:10;12.70;99.90
17565;DHT22;62994;52.126;5.596;2023-11-19T04:59:38;12.70;99.90
17565;DHT22;62994;52.126;5.596;2023-11-19T05:02:04;12.70;99.90
17565;DHT22;62994;52.126;5.596;2023-11-19T05:04:31;12.70;99.90
17565;DHT22;62994;52.126;5.596;2023-11-19T05:06:59;12.70;99.90
17565;DHT22;62994;52.126;5.596;2023-11-19T05:09:28;12.70;99.90
17565;DHT22;62994;52.126;5.596;2023-11-19T05:11:55;12.70;99.90
17565;DHT22;62994;52.126;5.596;2023-11-19T05:14:23;12.70;99.90
17565;DHT22;62994;52.126;5.596;2023-11-19T05:16:50;12.60;99.90
17565;DHT22;62994;52.126;5.596;2023-11-19T05:19:17;12.60;99.90
17565;DHT22;62994;52.126;5.596;2023-11-19T05:21:44;12.60;99.90
17565;DHT22;62994;52.126;5.596;2023-11-19T05:24:11;12.60;99.90
17565;DHT22;62994;52.126;5.596;2023-11-19T05:26:39;12.60;99.90
17565;DHT22;62994;52.126;5.596;2023-11-19T05:29:06;12.60;99.90
17565;DHT22;62994;52.126;5.596;2023-11-19T05:31:34;12.60;99.90
17565;DHT22;62994;52.126;5.596;2023-11-19T05:34:01;12.50;99.90
17565;DHT22;62994;52.126;5.596;2023-11-19T05:36:28;12.60;99.90
17565;DHT22;62994;52.126;5.596;2023-11-19T05:38:55;12.50;99.90
17565;DHT22;62994;52.126;5.596;2023-11-19T05:41:22;12.50;99.90
17565;DHT22;62994;52.126;5.596;2023-11-19T05:43:49;12.50;99.90
17565;DHT22;62994;52.126;5.596;2023-11-19T05:46:17;12.50;99.90
17565;DHT22;62994;52.126;5.596;2023-11-19T05:48:45;12.50;99.90
17565;DHT22;62994;52.126;5.596;2023-11-19T05:51:12;12.40;99.90
17565;DHT22;62994;52.126;5.596;2023-11-19T05:53:40;12.40;99.90
17565;DHT22;62994;52.126;5.596;2023-11-19T05:56:08;12.40;99.90
17565;DHT22;62994;52.126;5.596;2023-11-19T05:58:35;12.40;99.90
17565;DHT22;62994;52.126;5.596;2023-11-19T06:01:03;12.40;99.90
17565;DHT22;62994;52.126;5.596;2023-11-19T06:03:37;12.40;99.90
17565;DHT22;62994;52.126;5.596;2023-11-19T06:06:06;12.40;99.90
17565;DHT22;62994;52.126;5.596;2023-11-19T06:08:33;12.30;99.90
17565;DHT22;62994;52.126;5.596;2023-11-19T06:11:00;12.30;99.90
17565;DHT22;62994;52.126;5.596;2023-11-19T06:13:27;12.30;99.90
17565;DHT22;62994;52.126;5.596;2023-11-19T06:15:56;12.30;99.90
17565;DHT22;62994;52.126;5.596;2023-11-19T06:18:23;12.30;99.90
17565;DHT22;62994;52.126;5.596;2023-11-19T06:20:52;12.30;99.90
17565;DHT22;62994;52.126;5.596;2023-11-19T06:23:20;12.30;99.90
17565;DHT22;62994;52.126;5.596;2023-11-19T06:25:49;12.30;99.90
17565;DHT22;62994;52.126;5.596;2023-11-19T06:28:16;12.30;99.90
17565;DHT22;62994;52.126;5.596;2023-11-19T06:30:43;12.30;99.90
17565;DHT22;62994;52.126;5.596;2023-11-19T06:33:12;12.30;99.90
17565;DHT22;62994;52.126;5.596;2023-11-19T06:35:40;12.30;99.90
17565;DHT22;62994;52.126;5.596;2023-11-19T06:38:07;12.30;99.90
17565;DHT22;62994;52.126;5.596;2023-11-19T06:40:35;12.30;99.90
17565;DHT22;62994;52.126;5.596;2023-11-19T06:43:03;12.30;99.90
17565;DHT22;62994;52.126;5.596;2023-11-19T06:45:30;12.30;99.90
17565;DHT22;62994;52.126;5.596;2023-11-19T06:47:57;12.20;99.90
17565;DHT22;62994;52.126;5.596;2023-11-19T06:50:33;12.20;99.90
17565;DHT22;62994;52.126;5.596;2023-11-19T06:53:09;12.20;99.90
17565;DHT22;62994;52.126;5.596;2023-11-19T06:55:48;12.20;99.90
17565;DHT22;62994;52.126;5.596;2023-11-19T06:58:15;12.20;99.90
17565;DHT22;62994;52.126;5.596;2023-11-19T07:00:43;12.10;99.90
17565;DHT22;62994;52.126;5.596;2023-11-19T07:03:12;12.10;99.90
17565;DHT22;62994;52.126;5.596;2023-11-19T07:05:50;12.10;99.90
17565;DHT22;62994;52.126;5.596;2023-11-19T07:08:17;12.10;99.90
17565;DHT22;62994;52.126;5.596;2023-11-19T07:10:47;12.10;99.90
17565;DHT22;62994;52.126;5.596;2023-11-19T07:13:17;12.10;99.90
17565;DHT22;62994;52.126;5.596;2023-11-19T07:15:46;12.10;99.90
17565;DHT22;62994;52.126;5.596;2023-11-19T07:18:19;12.10;99.90
17565;DHT22;62994;52.126;5.596;2023-11-19T07:20:47;12.10;99.90
17565;DHT22;62994;52.126;5.596;2023-11-19T07:23:29;12.10;99.90
17565;DHT22;62994;52.126;5.596;2023-11-19T07:25:58;12.00;99.90
17565;DHT22;62994;52.126;5.596;2023-11-19T07:28:24;12.10;99.90
17565;DHT22;62994;52.126;5.596;2023-11-19T07:30:51;12.10;99.90
17565;DHT22;62994;52.126;5.596;2023-11-19T07:33:18;12.10;99.90
17565;DHT22;62994;52.126;5.596;2023-11-19T07:35:45;12.10;99.90
17565;DHT22;62994;52.126;5.596;2023-11-19T07:38:18;12.00;99.90
17565;DHT22;62994;52.126;5.596;2023-11-19T07:40:45;12.00;99.90
17565;DHT22;62994;52.126;5.596;2023-11-19T07:43:14;12.10;99.90
17565;DHT22;62994;52.126;5.596;2023-11-19T07:45:43;12.10;99.90
17565;DHT22;62994;52.126;5.596;2023-11-19T07:48:11;12.10;99.90
17565;DHT22;62994;52.126;5.596;2023-11-19T07:50:38;12.10;99.90
17565;DHT22;62994;52.126;5.596;2023-11-19T07:53:06;12.10;99.90
17565;DHT22;62994;52.126;5.596;2023-11-19T07:55:34;12.10;99.90
17565;DHT22;62994;52.126;5.596;2023-11-19T07:58:01;12.10;99.90
17565;DHT22;62994;52.126;5.596;2023-11-19T08:00:29;12.10;99.90
17565;DHT22;62994;52.126;5.596;2023-11-19T08:02:56;12.10;99.90
17565;DHT22;62994;52.126;5.596;2023-11-19T08:05:23;12.10;99.90
17565;DHT22;62994;52.126;5.596;2023-11-19T08:07:51;12.10;99.90
17565;DHT22;62994;52.126;5.596;2023-11-19T08:10:18;12.00;99.90
17565;DHT22;62994;52.126;5.596;2023-11-19T08:12:47;12.10;99.90
17565;DHT22;62994;52.126;5.596;2023-11-19T08:15:14;12.10;99.90
17565;DHT22;62994;52.126;5.596;2023-11-19T08:17:43;12.10;99.90
17565;DHT22;62994;52.126;5.596;2023-11-19T08:20:15;12.10;99.90
17565;DHT22;62994;52.126;5.596;2023-11-19T08:22:42;12.10;99.90
17565;DHT22;62994;52.126;5.596;2023-11-19T08:25:09;12.20;99.90
17565;DHT22;62994;52.126;5.596;2023-11-19T08:27:42;12.10;99.90
17565;DHT22;62994;52.126;5.596;2023-11-19T08:30:10;12.20;99.90
17565;DHT22;62994;52.126;5.596;2023-11-19T08:32:37;12.20;99.90
17565;DHT22;62994;52.126;5.596;2023-11-19T08:35:06;12.20;99.90
17565;DHT22;62994;52.126;5.596;2023-11-19T08:37:33;12.20;99.90
17565;DHT22;62994;52.126;5.596;2023-11-19T08:40:04;12.20;99.90
17565;DHT22;62994;52.126;5.596;2023-11-19T08:42:32;12.20;99.90
17565;DHT22;62994;52.126;5.596;2023-11-19T08:44:59;12.30;99.90
17565;DHT22;62994;52.126;5.596;2023-11-19T08:47:26;12.20;99.90
17565;DHT22;62994;52.126;5.596;2023-11-19T08:49:53;12.30;99.90
17565;DHT22;62994;52.126;5.596;2023-11-19T08:52:22;12.20;99.90
17565;DHT22;62994;52.126;5.596;2023-11-19T08:54:49;12.30;99.90
17565;DHT22;62994;52.126;5.596;2023-11-19T08:57:16;12.30;99.90
17565;DHT22;62994;52.126;5.596;2023-11-19T08:59:42;12.30;99.90
17565;DHT22;62994;52.126;5.596;2023-11-19T09:02:11;12.30;99.90
17565;DHT22;62994;52.126;5.596;2023-11-19T09:04:38;12.30;99.90
17565;DHT22;62994;52.126;5.596;2023-11-19T09:07:11;12.30;99.90
17565;DHT22;62994;52.126;5.596;2023-11-19T09:09:39;12.40;99.90
17565;DHT22;62994;52.126;5.596;2023-11-19T09:12:06;12.40;99.90
17565;DHT22;62994;52.126;5.596;2023-11-19T09:14:38;12.50;99.90
17565;DHT22;62994;52.126;5.596;2023-11-19T09:17:12;12.50;99.90
17565;DHT22;62994;52.126;5.596;2023-11-19T09:19:44;12.50;99.90
17565;DHT22;62994;52.126;5.596;2023-11-19T09:22:16;12.50;99.90
17565;DHT22;62994;52.126;5.596;2023-11-19T09:24:44;12.60;99.90
17565;DHT22;62994;52.126;5.596;2023-11-19T09:27:11;12.60;99.90
17565;DHT22;62994;52.126;5.596;2023-11-19T09:29:38;12.60;99.90
17565;DHT22;62994;52.126;5.596;2023-11-19T09:32:06;12.70;99.90
17565;DHT22;62994;52.126;5.596;2023-11-19T09:34:33;12.70;99.90
17565;DHT22;62994;52.126;5.596;2023-11-19T09:37:01;12.70;99.90
17565;DHT22;62994;52.126;5.596;2023-11-19T09:39:28;12.80;99.90
17565;DHT22;62994;52.126;5.596;2023-11-19T09:41:56;12.70;99.90
17565;DHT22;62994;52.126;5.596;2023-11-19T09:44:24;12.80;99.90
17565;DHT22;62994;52.126;5.596;2023-11-19T09:46:52;12.80;99.90
17565;DHT22;62994;52.126;5.596;2023-11-19T09:49:21;12.80;99.90
17565;DHT22;62994;52.126;5.596;2023-11-19T09:51:54;12.90;99.90
17565;DHT22;62994;52.126;5.596;2023-11-19T09:54:23;12.90;99.90
17565;DHT22;62994;52.126;5.596;2023-11-19T09:56:51;12.90;99.90
17565;DHT22;62994;52.126;5.596;2023-11-19T09:59:19;12.90;99.90
17565;DHT22;62994;52.126;5.596;2023-11-19T10:01:46;13.00;99.90
17565;DHT22;62994;52.126;5.596;2023-11-19T10:04:19;12.90;99.90
17565;DHT22;62994;52.126;5.596;2023-11-19T10:06:47;13.00;99.90
17565;DHT22;62994;52.126;5.596;2023-11-19T10:09:14;13.00;99.90
17565;DHT22;62994;52.126;5.596;2023-11-19T10:11:44;13.00;99.90
17565;DHT22;62994;52.126;5.596;2023-11-19T10:14:10;13.10;99.90
17565;DHT22;62994;52.126;5.596;2023-11-19T10:16:41;13.00;99.90
17565;DHT22;62994;52.126;5.596;2023-11-19T10:19:12;13.10;99.90
17565;DHT22;62994;52.126;5.596;2023-11-19T10:21:45;13.10;99.90
17565;DHT22;62994;52.126;5.596;2023-11-19T10:24:13;13.10;99.90
17565;DHT22;62994;52.126;5.596;2023-11-19T10:26:40;13.10;99.90
17565;DHT22;62994;52.126;5.596;2023-11-19T10:29:08;13.20;99.90
17565;DHT22;62994;52.126;5.596;2023-11-19T10:31:35;13.20;99.90
17565;DHT22;62994;52.126;5.596;2023-11-19T10:34:24;13.30;99.90
17565;DHT22;62994;52.126;5.596;2023-11-19T10:36:51;13.30;99.90
17565;DHT22;62994;52.126;5.596;2023-11-19T10:39:18;13.30;99.90
17565;DHT22;62994;52.126;5.596;2023-11-19T10:41:46;13.30;99.90
17565;DHT22;62994;52.126;5.596;2023-11-19T10:44:31;13.30;99.90
17565;DHT22;62994;52.126;5.596;2023-11-19T10:46:59;13.40;99.90
17565;DHT22;62994;52.126;5.596;2023-11-19T10:49:27;13.40;99.90
17565;DHT22;62994;52.126;5.596;2023-11-19T10:51:55;13.50;99.90
17565;DHT22;62994;52.126;5.596;2023-11-19T10:54:31;13.50;99.90
17565;DHT22;62994;52.126;5.596;2023-11-19T10:56:59;13.60;99.90
17565;DHT22;62994;52.126;5.596;2023-11-19T10:59:30;13.50;99.90
17565;DHT22;62994;52.126;5.596;2023-11-19T11:02:00;13.60;99.90
17565;DHT22;62994;52.126;5.596;2023-11-19T11:04:33;13.60;99.90
17565;DHT22;62994;52.126;5.596;2023-11-19T11:07:07;13.70;99.90
17565;DHT22;62994;52.126;5.596;2023-11-19T11:09:35;13.70;99.90
17565;DHT22;62994;52.126;5.596;2023-11-19T11:12:04;13.70;99.90
17565;DHT22;62994;52.126;5.596;2023-11-19T11:14:35;13.80;99.90
17565;DHT22;62994;52.126;5.596;2023-11-19T11:17:09;13.80;99.90
17565;DHT22;62994;52.126;5.596;2023-11-19T11:19:42;13.80;99.90
17565;DHT22;62994;52.126;5.596;2023-11-19T11:22:11;13.80;99.90
17565;DHT22;62994;52.126;5.596;2023-11-19T11:25:01;13.90;99.90
17565;DHT22;62994;52.126;5.596;2023-11-19T11:28:02;13.90;99.90
17565;DHT22;62994;52.126;5.596;2023-11-19T11:30:42;13.90;99.90
17565;DHT22;62994;52.126;5.596;2023-11-19T11:33:24;13.90;99.90
17565;DHT22;62994;52.126;5.596;2023-11-19T11:36:02;13.90;99.90
17565;DHT22;62994;52.126;5.596;2023-11-19T11:38:36;13.90;99.90
17565;DHT22;62994;52.126;5.596;2023-11-19T11:41:18;13.90;99.90
17565;DHT22;62994;52.126;5.596;2023-11-19T11:43:50;13.90;99.90
17565;DHT22;62994;52.126;5.596;2023-11-19T11:49:28;13.90;99.90
17565;DHT22;62994;52.126;5.596;2023-11-19T11:52:03;13.90;99.90
17565;DHT22;62994;52.126;5.596;2023-11-19T11:54:31;13.90;99.90
17565;DHT22;62994;52.126;5.596;2023-11-19T11:57:08;13.90;99.90
17565;DHT22;62994;52.126;5.596;2023-11-19T11:59:48;13.90;99.90
17565;DHT22;62994;52.126;5.596;2023-11-19T12:02:17;13.90;99.90
17565;DHT22;62994;52.126;5.596;2023-11-19T12:04:50;13.90;99.90
17565;DHT22;62994;52.126;5.596;2023-11-19T12:07:20;13.90;99.90
17565;DHT22;62994;52.126;5.596;2023-11-19T12:09:48;13.90;99.90
17565;DHT22;62994;52.126;5.596;2023-11-19T12:12:30;13.90;99.90
17565;DHT22;62994;52.126;5.596;2023-11-19T12:15:06;14.00;99.90
17565;DHT22;62994;52.126;5.596;2023-11-19T12:17:48;14.00;99.90
17565;DHT22;62994;52.126;5.596;2023-11-19T12:20:18;14.00;99.90
17565;DHT22;62994;52.126;5.596;2023-11-19T12:22:48;14.00;99.90
17565;DHT22;62994;52.126;5.596;2023-11-19T12:25:17;14.00;99.90
17565;DHT22;62994;52.126;5.596;2023-11-19T12:27:46;14.00;99.90
17565;DHT22;62994;52.126;5.596;2023-11-19T12:30:17;14.00;99.90
17565;DHT22;62994;52.126;5.596;2023-11-19T12:32:45;14.00;99.90
17565;DHT22;62994;52.126;5.596;2023-11-19T12:35:12;14.10;99.90
17565;DHT22;62994;52.126;5.596;2023-11-19T12:37:43;14.10;99.90
17565;DHT22;62994;52.126;5.596;2023-11-19T12:40:19;14.10;99.90
17565;DHT22;62994;52.126;5.596;2023-11-19T12:42:47;14.10;99.90
17565;DHT22;62994;52.126;5.596;2023-11-19T12:45:14;14.10;99.90
17565;DHT22;62994;52.126;5.596;2023-11-19T12:47:42;14.20;99.90
17565;DHT22;62994;52.126;5.596;2023-11-19T12:50:14;14.10;99.90
17565;DHT22;62994;52.126;5.596;2023-11-19T12:52:43;14.10;99.90
17565;DHT22;62994;52.126;5.596;2023-11-19T12:55:27;14.10;99.90
17565;DHT22;62994;52.126;5.596;2023-11-19T12:57:55;14.10;99.90
17565;DHT22;62994;52.126;5.596;2023-11-19T13:00:24;14.10;99.90
17565;DHT22;62994;52.126;5.596;2023-11-19T13:02:55;14.10;99.90
17565;DHT22;62994;52.126;5.596;2023-11-19T13:05:28;14.10;99.90
17565;DHT22;62994;52.126;5.596;2023-11-19T13:08:05;14.10;99.90
17565;DHT22;62994;52.126;5.596;2023-11-19T13:10:43;14.00;99.90
17565;DHT22;62994;52.126;5.596;2023-11-19T13:13:16;14.00;99.90
17565;DHT22;62994;52.126;5.596;2023-11-19T13:15:44;14.00;99.90
17565;DHT22;62994;52.126;5.596;2023-11-19T13:18:11;14.10;99.90
17565;DHT22;62994;52.126;5.596;2023-11-19T13:20:39;14.00;99.90
17565;DHT22;62994;52.126;5.596;2023-11-19T13:23:06;14.00;99.90
17565;DHT22;62994;52.126;5.596;2023-11-19T13:25:35;14.00;99.90
17565;DHT22;62994;52.126;5.596;2023-11-19T13:28:02;14.00;99.90
17565;DHT22;62994;52.126;5.596;2023-11-19T13:30:31;14.00;99.90
17565;DHT22;62994;52.126;5.596;2023-11-19T13:32:58;14.00;99.90
17565;DHT22;62994;52.126;5.596;2023-11-19T13:35:26;14.00;99.90
17565;DHT22;62994;52.126;5.596;2023-11-19T13:37:53;14.00;99.90
17565;DHT22;62994;52.126;5.596;2023-11-19T13:40:20;13.90;99.90
17565;DHT22;62994;52.126;5.596;2023-11-19T13:42:51;13.90;99.90
17565;DHT22;62994;52.126;5.596;2023-11-19T13:45:18;13.90;99.90
17565;DHT22;62994;52.126;5.596;2023-11-19T13:47:46;13.80;99.90
17565;DHT22;62994;52.126;5.596;2023-11-19T13:50:15;13.80;99.90
17565;DHT22;62994;52.126;5.596;2023-11-19T13:52:43;13.80;99.90
17565;DHT22;62994;52.126;5.596;2023-11-19T13:55:12;13.80;99.90
17565;DHT22;62994;52.126;5.596;2023-11-19T13:57:40;13.80;99.90
17565;DHT22;62994;52.126;5.596;2023-11-19T14:00:10;13.80;99.90
17565;DHT22;62994;52.126;5.596;2023-11-19T14:02:38;13.70;99.90
17565;DHT22;62994;52.126;5.596;2023-11-19T14:05:06;13.70;99.90
17565;DHT22;62994;52.126;5.596;2023-11-19T14:07:33;13.70;99.90
17565;DHT22;62994;52.126;5.596;2023-11-19T14:10:00;13.60;99.90
17565;DHT22;62994;52.126;5.596;2023-11-19T14:12:29;13.60;99.90
17565;DHT22;62994;52.126;5.596;2023-11-19T14:14:56;13.60;99.90
17565;DHT22;62994;52.126;5.596;2023-11-19T14:17:25;13.60;99.90
17565;DHT22;62994;52.126;5.596;2023-11-19T14:19:52;13.60;99.90
17565;DHT22;62994;52.126;5.596;2023-11-19T14:22:25;13.60;99.90
17565;DHT22;62994;52.126;5.596;2023-11-19T14:24:52;13.60;99.90
17565;DHT22;62994;52.126;5.596;2023-11-19T14:27:24;13.60;99.90
17565;DHT22;62994;52.126;5.596;2023-11-19T14:29:51;13.60;99.90
17565;DHT22;62994;52.126;5.596;2023-11-19T14:32:19;13.60;99.90
17565;DHT22;62994;52.126;5.596;2023-11-19T14:34:47;13.60;99.90
17565;DHT22;62994;52.126;5.596;2023-11-19T14:37:15;13.60;99.90
17565;DHT22;62994;52.126;5.596;2023-11-19T14:39:46;13.60;99.90
17565;DHT22;62994;52.126;5.596;2023-11-19T14:42:13;13.60;99.90
17565;DHT22;62994;52.126;5.596;2023-11-19T14:44:40;13.50;99.90
17565;DHT22;62994;52.126;5.596;2023-11-19T14:47:12;13.60;99.90
17565;DHT22;62994;52.126;5.596;2023-11-19T14:49:40;13.60;99.90
17565;DHT22;62994;52.126;5.596;2023-11-19T14:52:08;13.60;99.90
17565;DHT22;62994;52.126;5.596;2023-11-19T14:54:38;13.60;99.90
17565;DHT22;62994;52.126;5.596;2023-11-19T14:57:09;13.50;99.90
17565;DHT22;62994;52.126;5.596;2023-11-19T14:59:36;13.50;99.90
17565;DHT22;62994;52.126;5.596;2023-11-19T15:02:04;13.40;99.90
17565;DHT22;62994;52.126;5.596;2023-11-19T15:04:36;13.40;99.90
17565;DHT22;62994;52.126;5.596;2023-11-19T15:07:12;13.50;99.90
17565;DHT22;62994;52.126;5.596;2023-11-19T15:09:40;13.50;99.90
17565;DHT22;62994;52.126;5.596;2023-11-19T15:12:07;13.40;99.90
17565;DHT22;62994;52.126;5.596;2023-11-19T15:14:34;13.40;99.90
17565;DHT22;62994;52.126;5.596;2023-11-19T15:17:06;13.40;99.90
17565;DHT22;62994;52.126;5.596;2023-11-19T15:19:33;13.40;99.90
17565;DHT22;62994;52.126;5.596;2023-11-19T15:22:01;13.40;99.90
17565;DHT22;62994;52.126;5.596;2023-11-19T15:24:32;13.40;99.90
17565;DHT22;62994;52.126;5.596;2023-11-19T15:26:59;13.40;99.90
17565;DHT22;62994;52.126;5.596;2023-11-19T15:29:26;13.40;99.90
17565;DHT22;62994;52.126;5.596;2023-11-19T15:31:59;13.40;99.90
17565;DHT22;62994;52.126;5.596;2023-11-19T15:34:26;13.40;99.90
17565;DHT22;62994;52.126;5.596;2023-11-19T15:36:52;13.40;99.90
17565;DHT22;62994;52.126;5.596;2023-11-19T15:39:19;13.40;99.90
17565;DHT22;62994;52.126;5.596;2023-11-19T15:41:48;13.30;99.90
17565;DHT22;62994;52.126;5.596;2023-11-19T15:44:15;13.30;99.90
17565;DHT22;62994;52.126;5.596;2023-11-19T15:46:46;13.30;99.90